METAR v bližini

 

LJLJ - Ljubljana/Brnik, Slovenia
Oddaljenost od postaje: Z 41km
Podatki zajeti: 24/06/2018 18:00
Pretežno oblačno
Pretežno oblačno
 Veter iz smeri J
Veter: J 2 km/h
Temperatura: 19°C
Rosišče: 12°C
Vlažnost: 64%
Tlak: 1017 hPa
Oblačnost: Pretežno oblačno
Vidljivost: 10 km
Podrobnosti o oblakih: Rahlo oblačno 1219 m
Delno oblačno 1676 m
Pretežno oblačno 3048 m
2018/06/24 16:00 LJLJ 241600Z 19001KT 9999 FEW040TCU SCT055 BKN100 19/12 Q1017 NOSIG
LJMB - Maribor, Slovenia
Oddaljenost od postaje: SV 63km
Podatki zajeti: 24/06/2018 18:00
Pretežno oblačno
Pretežno oblačno
 Veter iz smeri VJV
Veter: VJV 7 km/h
Temperatura: 20°C
Rosišče: 9°C
Vlažnost: 49%
Tlak: 1018 hPa
Oblačnost: Pretežno oblačno
Vidljivost: 10 km
Podrobnosti o oblakih: Delno oblačno 1402 m
Pretežno oblačno 1829 m
2018/06/24 16:00 LJMB 241600Z 11004KT 050V200 9999 SCT046TCU BKN060 20/09 Q1018
 
LJPZ - Portoroz, Slovenia
Oddaljenost od postaje: JZ 130km
Podatki zajeti: 24/06/2018 18:00
Pretežno oblačno
Pretežno oblačno
 Veter iz smeri ZSZ
Veter: ZSZ 7 km/h
Temperatura: 24°C
Rosišče: 11°C
Vlažnost: 44%
Tlak: 1016 hPa
Oblačnost: Pretežno oblačno
Vidljivost: 10 km
Podrobnosti o oblakih: Rahlo oblačno 1524 m
Delno oblačno 2743 m
Pretežno oblačno 7315 m
2018/06/24 16:00 LJPZ 241600Z 29004KT 240V020 9999 FEW050 SCT090 BKN240 24/11 Q1016
LJCE - Cerklje, Slovenia
Oddaljenost od postaje: VJV 49km
Podatki zajeti: 24/06/2018 18:00
Delno oblačno
Delno oblačno
 Veter iz smeri V
Veter: V 9 km/h
Temperatura: 21°C
Rosišče: 11°C
Vlažnost: 53%
Tlak: 1017 hPa
Oblačnost: Delno oblačno
Vidljivost: 10 km
2018/06/24 16:00 LJCE 241600Z AUTO 10005KT 030V170 9999 NSC 21/11 Q1017
 
LDZA - Zagreb/Pleso, Croatia
Oddaljenost od postaje: VJV 96km
Podatki zajeti: 24/06/2018 18:00
Jasno
Jasno
 Veter iz smeri spremenljiv
Veter: spremenljiv 4 km/h
Temperatura: 21°C
Rosišče: 10°C
Vlažnost: 50%
Tlak: 1017 hPa
Stanje: Jasno
Vidljivost: večja od 10 km
2018/06/24 16:00 LDZA 241600Z VRB02KT CAVOK 21/10 Q1017 NOSIG
LDRI - Rijeka/Omisalj, Croatia
Oddaljenost od postaje: JJZ 109km
Podatki zajeti: 24/06/2018 18:00
Rahlo oblačno
Rahlo oblačno
 Veter iz smeri ZSZ
Veter: ZSZ 15 km/h
Temperatura: 20°C
Rosišče: 11°C
Vlažnost: 56%
Tlak: 1017 hPa
Oblačnost: Rahlo oblačno
Vidljivost: 10 km
Podrobnosti o oblakih: Rahlo oblačno 1737 m
2018/06/24 16:00 LDRI 241600Z 30008KT 9999 FEW057 20/11 Q1017
 
LDPL - Pula, Croatia
Oddaljenost od postaje: JJZ 164km
Podatki zajeti: 24/06/2018 18:00
Jasno
Jasno
 Veter iz smeri SZ
Veter: SZ 11 km/h
Temperatura: 23°C
Rosišče: 9°C
Vlažnost: 41%
Tlak: 1017 hPa
Stanje: Jasno
Vidljivost: večja od 10 km
2018/06/24 16:00 LDPL 241600Z 31006KT 250V340 CAVOK 23/09 Q1017 NOSIG
LOWK - Klagenfurt(Civ/M, Austria
Oddaljenost od postaje: SZ 76km
Podatki zajeti: 24/06/2018 18:20
Pretežno oblačno
Pretežno oblačno
 Veter iz smeri V
Veter: V 7 km/h
Temperatura: 20°C
Rosišče: 8°C
Vlažnost: 46%
Tlak: 1017 hPa
Oblačnost: Pretežno oblačno
Vidljivost: 10 km
Podrobnosti o oblakih: Rahlo oblačno 1829 m
Pretežno oblačno 9144 m
2018/06/24 16:20 LOWK 241620Z 09004KT 030V160 9999 FEW060 BKN300 20/08 Q1017 NOSIG
 
LOWG - Graz (mil/Civ), Austria
Oddaljenost od postaje: SSV 100km
Podatki zajeti: 24/06/2018 18:20
Delno oblačno
Delno oblačno
 Veter iz smeri VJV
Veter: VJV 13 km/h
Temperatura: 20°C
Rosišče: 8°C
Vlažnost: 46%
Tlak: 1017 hPa
Oblačnost: Delno oblačno
Vidljivost: 10 km
Podrobnosti o oblakih: Rahlo oblačno 1524 m
Delno oblačno 9144 m
2018/06/24 16:20 LOWG 241620Z 11007KT 9999 FEW050 SCT300 20/08 Q1017 NOSIG
LOWZ - Zell Am See, Austria
Oddaljenost od postaje: SZ 211km
Podatki zajeti: 31/12/2016 17:00
Ni posodobljen
Jasno
Jasno
 Veter iz smeri spremenljiv
Veter: spremenljiv 4 km/h
Temperatura: -4°C
Rosišče: -7°C
Vlažnost: 80%
Tlak: 1031 hPa
Oblačnost: Jasno
2016/12/31 16:00 LOWZ 311600Z VRB02KT 50KM SKC M04/M07 Q1031
 
LOAN - Wr.neustadt East, Austria
Oddaljenost od postaje: SSV 212km
Podatki zajeti: 24/06/2018 18:00
Pretežno oblačno
Pretežno oblačno
 Veter iz smeri SSZ
Veter: SSZ 24 km/h
Oblačnost: Pretežno oblačno
Podrobnosti o oblakih: Rahlo oblačno 1219 m
Delno oblačno 1829 m
Pretežno oblačno 3048 m
2018/06/24 16:00 LOAN 241600Z 33013KT 35KM FEW040CU SCT060SC BKN100AC
LIPQ - Ronchi Legionari, Italy
Oddaljenost od postaje: JZ 35km
Podatki zajeti: 24/06/2018 18:20
Delno oblačno
Delno oblačno
 Veter iz smeri J
Veter: J 7 km/h
Temperatura: 23°C
Rosišče: 13°C
Vlažnost: 53%
Tlak: 1016 hPa
Oblačnost: Delno oblačno
Vidljivost: 10 km
Podrobnosti o oblakih: Delno oblačno 3048 m
2018/06/24 16:20 LIPQ 241620Z 18004KT 150V220 9999 SCT100 23/13 Q1016
 
LIVT - Trieste, Italy
Oddaljenost od postaje: ZJZ 109km
Podatki zajeti: 24/06/2018 17:55
Delno oblačno
Delno oblačno
 Veter iz smeri calm
Veter: Tišina
Temperatura: 23°C
Rosišče: 13°C
Vlažnost: 53%
Tlak: 1017 hPa
Oblačnost: Delno oblačno
Vidljivost: 10 km
Podrobnosti o oblakih: Delno oblačno 1219 m
2018/06/24 15:55 LIVT 241555Z 00000KT 9999 SCT040 23/13 Q1017 RMK OVC BKN080 QUK 0 QUL 0 VIS MAR 20 KM VIS MIN 9999
LIVO - Tarvisio, Italy
Oddaljenost od postaje: SSZ 49km
Podatki zajeti: 24/06/2018 17:55
Pretežno oblačno
Pretežno oblačno
 Veter iz smeri JJV
Veter: JJV 13 km/h
Temperatura: 17°C
Rosišče: 11°C
Vlažnost: 68%
Tlak: 1017 hPa
Oblačnost: Pretežno oblačno
Vidljivost: 10 km
Podrobnosti o oblakih: Pretežno oblačno 914 m
2018/06/24 15:55 LIVO 241555Z 16007KT 9999 BKN030 17/11 Q1017 RMK BKN VIS MIN 9999
 
LIPZ - Venezia/Tessera, Italy
Oddaljenost od postaje: ZJZ 217km
Podatki zajeti: 24/06/2018 18:20
Jasno
Jasno
 Veter iz smeri JJV
Veter: JJV 13 km/h
Temperatura: 23°C
Rosišče: 13°C
Vlažnost: 53%
Tlak: 1016 hPa
Stanje: Jasno
Vidljivost: večja od 10 km
2018/06/24 16:20 LIPZ 241620Z 15007KT CAVOK 23/13 Q1016 NOSIG
LHSM - Balaton, Hungary
Oddaljenost od postaje: VSV 177km
Podatki zajeti: 24/06/2018 17:45
Pretežno oblačno
Pretežno oblačno
 Veter iz smeri JJV
Veter: JJV 9 km/h
Temperatura: 16°C
Rosišče: 12°C
Vlažnost: 77%
Tlak: 1019 hPa
Oblačnost: Pretežno oblačno
Vidljivost: 10 km
Podrobnosti o oblakih: Rahlo oblačno 762 m
Rahlo oblačno 1006 m
Pretežno oblačno 2530 m
2018/06/24 15:45 LHSM 241545Z 15005KT 9999 FEW025 FEW033CB BKN083 16/12 Q1019 RESHRA NOSIG